EGSSLFRG

Guest
Details From EGSS - London Stansted
To LFRG - Deauville Saint Gatien
Flight Number -
Tags decoded
Created
Modified
Stats Distance 151 nm / 280 km
Max Altitude 0 ft / 0 m
Waypoints 3
Social Downloads 1
Likes 0
Share VATSIM

Download

Looking for another format? Having issues loading an existing format? Contact us
Advertisement - Login to hide

Notes

Requested: EGSS BEECH LFRG

Route

EGSS BEECH LFRG

ID Type Via Altitude (ft/m) Position (lat/lon) Dist (leg/tot) Name
O EGSS APT - 0 / 0 51.88510 / 0.23496 - / 0 nm London Stansted
BEECH FIX - 0 / 0 50.47056 / 0.21000 84 / 84 nm
O LFRG APT - 0 / 0 49.36530 / 0.15432 66 / 151 nm Deauville Saint Gatien

Altitude Profile

Advertisement - Login to hide

EGSS

Details ICAO EGSS (STN)
Name London Stansted
Region United Kingdom
Timezone Europe/London (UTC+0.0)
Stats Elevation 348 ft / 106 m (AMSL)
Location 51.885100° 0.234986°
Runways 1
Magnetic Variation 0.214° W

METAR

EGSS 160850Z AUTO 22008KT 9000 NCD 03/03 Q1006

Decode

TAF

TAF EGSS 160500Z 1606/1712 20008KT 9999 SCT030 TEMPO 1606/1612 6000 PROB30 1606/1610 3000 BR BKN004 TEMPO 1621/1701 16015G25KT 4000 SHRA BKN012 BECMG 1700/1703 26012KT PROB30 1702/1709 4000 BR BKN004 BECMG 1709/1712 19010KT

Decode

Departure Runways

ID Width Length Bearing (true/mag) Surface Threshold Overrun Markings Lighting
04 151 ft / 46 m 9,985 ft / 3,044 m 42.78° / 43.00° ASPHALT 974 ft / 297 m 0 ft / 0 m UK-PREC-APP CENTERLINE EDGE THRESHOLD CALVERT-ILS TDZ REIL-OMNI
22 151 ft / 46 m 9,985 ft / 3,044 m 222.81° / 223.02° ASPHALT 0 ft / 0 m 0 ft / 0 m UK-PREC-APP CENTERLINE EDGE THRESHOLD CALVERT-ILS TDZ REIL-OMNI

LFRG

Details ICAO LFRG (DOL)
Name Deauville Saint Gatien
Region France
Timezone Europe/Paris (UTC+1.0)
Stats Elevation 479 ft / 146 m (AMSL)
Location 49.365300° 0.154325°
Runways 1
Magnetic Variation 0.003° W

METAR

LFRG 160900Z AUTO 19010KT 1400 R30/1300U BR VV/// 05/05 Q1010 TEMPO 4000 BR BKN004

Decode

TAF

Not found

Destination Runways

ID Width Length Bearing (true/mag) Surface Threshold Overrun Markings Lighting
12 148 ft / 45 m 8,344 ft / 2,543 m 117.22° / 117.22° ASPHALT 1,476 ft / 450 m 0 ft / 0 m APP EDGE THRESHOLD REIL-OMNI
30 148 ft / 45 m 8,344 ft / 2,543 m 297.25° / 297.25° ASPHALT 1,378 ft / 420 m 0 ft / 0 m PREC-APP EDGE THRESHOLD REIL-OMNI

Approach Navaids

Runway Type Ident Frequency Range Bearing (true/mag) Slope Elevation
30 LOC-ILS DV 111.55 MHz 18 nm / 33 km 297.22° / 297.22 ° - 479 ft / 146 m (AMSL)
30 GS DV 111.55 MHz 10 nm / 19 km 297.47° / 297.47 ° 3.00° 479 ft / 146 m (AMSL)
30 DME DV 111.55 MHz 18 nm / 33 km - - 466 ft / 142 m (AMSL)

Popular Alternatives